Latest Coastal Weather Observations for Mandora

IDW60701

Issued at 8:55 pm WST Friday 31 October 2014 (issued every 10 minutes, with the page automatically refreshed every 10 minutes)

About coastal observations | Map of coastal stations | Coastal observations for WA | Marine services | Other Formats
Station Details ID: 004019 Name: MANDORA Lat: -19.74 Lon: 120.84 Height: 7.5 m
Data from the previous 72 hours. | See also: Recent months at Mandora
Date/Time
WST
Temp

°C
Wind Pressure Rain
since 9am
mm
Weather Cloud Vis
km
Sea
Height
m
Swell
Dir
 
Speed
knots
Gust
knots
hPa Trend Height
m
Period
s
Dir
31/08:30pm 30.4 WSW 10 14 1007.6 - 0.0 - - - - - - -
31/08:00pm 30.7 W 10 15 1007.5 - 0.0 - - - - - - -
31/07:30pm 30.8 W 11 15 1007.1 - 0.0 - - - - - - -
31/07:00pm 30.7 W 12 17 1006.7 - 0.0 - - - - - - -
31/06:30pm 31.1 W 13 19 1006.1 - 0.0 - - - - - - -
31/06:00pm 32.2 W 13 19 1005.7 - 0.0 - - - - - - -
31/05:30pm 33.6 W 13 19 1005.3 - 0.0 - - - - - - -
31/05:00pm 35.4 W 13 20 1005.0 - 0.0 - - - - - - -
31/04:30pm 36.3 W 16 23 1004.8 - 0.0 - - - - - - -
31/04:00pm 37.3 W 16 22 1004.8 - 0.0 - - - - - - -
31/03:30pm 36.4 W 14 20 1004.8 - 0.0 - - - - - - -
31/03:00pm 37.7 WNW 16 23 1004.8 - 0.0 - - - - - - -
31/02:30pm 39.1 WNW 14 21 1004.8 - 0.0 - - - - - - -
31/02:00pm 39.7 WNW 12 17 1004.8 - 0.0 - - - - - - -
31/01:30pm 43.3 SSW 8 15 1005.2 - 0.0 - - - - - - -
31/01:00pm 42.6 S 7 14 1005.6 - 0.0 - - - - - - -
31/12:30pm 41.3 SW 7 14 1006.0 - 0.0 - - - - - - -
31/12:00pm 41.7 SSW 12 17 1006.4 - 0.0 - - - - - - -
31/11:30am 42.0 S 10 19 1006.8 - 0.0 - - - - - - -
31/11:00am 41.8 S 12 18 1007.2 - 0.0 - - - - - - -
31/10:30am 40.7 SSW 13 21 1007.6 - 0.0 - - - - - - -
31/10:00am 41.6 S 15 22 1007.8 - 0.0 - - - - - - -
31/09:30am 41.1 SSW 13 21 1008.0 - 0.0 - - - - - - -
31/09:00am 39.6 S 18 25 1008.0 - 0.0 - - - - - - -
31/08:30am 37.8 S 18 26 1008.3 - 0.0 - - - - - - -
31/08:19am 37.7 S 17 27 1008.2 - 0.0 - - - - - - -
31/08:00am 37.6 S 16 25 1008.1 - 0.0 - - - - - - -
31/07:57am 37.8 S 15 25 1008.1 - 0.0 - - - - - - -
31/07:30am 35.2 S 13 18 1008.1 - 0.0 - - - - - - -
31/07:00am 32.4 SSW 9 13 1007.9 - 0.0 - - - - - - -
31/06:30am 27.7 SW 6 9 1007.5 - 0.0 - - - - - - -
31/06:00am 24.8 SW 7 9 1007.0 - 0.0 - - - - - - -
31/05:30am 24.6 SW 6 7 1006.8 - 0.0 - - - - - - -
31/05:00am 24.9 SW 6 8 1006.4 - 0.0 - - - - - - -
31/04:30am 24.9 WSW 7 9 1005.8 - 0.0 - - - - - - -
31/04:00am 25.1 WSW 8 11 1005.6 - 0.0 - - - - - - -
31/03:30am 25.1 WSW 8 11 1005.5 - 0.0 - - - - - - -
31/03:00am 25.4 WSW 7 9 1005.1 - 0.0 - - - - - - -
31/02:30am 25.7 WSW 7 9 1005.2 - 0.0 - - - - - - -
31/02:00am 26.2 WSW 7 10 1005.3 - 0.0 - - - - - - -
31/01:30am 27.0 WSW 8 11 1005.6 - 0.0 - - - - - - -
31/01:00am 26.9 WSW 8 10 1005.8 - 0.0 - - - - - - -
31/12:30am 27.4 W 8 11 1006.2 - 0.0 - - - - - - -
31/12:00am 28.0 W 9 13 1006.5 - 0.0 - - - - - - -
 
Date/Time
WST
Temp

°C
Wind Pressure Rain
since 9am
mm
Weather Cloud Vis
km
Sea
Height
m
Swell
Dir
 
Speed
knots
Gust
knots
hPa Trend Height
m
Period
s
Dir
30/11:30pm 28.2 W 10 14 1007.0 - 0.0 - - - - - - -
30/11:00pm 28.7 W 10 13 1007.3 - 0.0 - - - - - - -
30/10:30pm 28.6 W 9 12 1007.4 - 0.0 - - - - - - -
30/10:00pm 28.7 W 9 13 1007.6 - 0.0 - - - - - - -
30/09:30pm 28.9 W 10 14 1007.4 - 0.0 - - - - - - -
30/09:00pm 28.9 W 9 13 1007.3 - 0.0 - - - - - - -
30/08:30pm 28.9 W 9 12 1007.2 - 0.0 - - - - - - -
30/08:00pm 29.1 W 9 13 1007.0 - 0.0 - - - - - - -
30/07:30pm 29.5 W 9 12 1006.8 - 0.0 - - - - - - -
30/07:00pm 29.5 WNW 8 11 1006.4 - 0.0 - - - - - - -
30/06:30pm 30.1 W 8 11 1006.1 - 0.0 - - - - - - -
30/06:00pm 30.6 WNW 7 12 1005.6 - 0.0 - - - - - - -
30/05:30pm 31.4 WNW 8 11 1005.5 - 0.0 - - - - - - -
30/05:00pm 32.8 WNW 11 15 1005.2 - 0.0 - - - - - - -
30/04:30pm 32.7 WNW 12 16 1005.1 - 0.0 - - - - - - -
30/04:00pm 33.1 NW 11 15 1004.9 - 0.0 - - - - - - -
30/03:30pm 33.8 NW 12 18 1004.9 - 0.0 - - - - - - -
30/03:00pm 34.1 NW 13 17 1004.9 - 0.0 - - - - - - -
30/02:30pm 35.5 NW 12 19 1005.3 - 0.0 - - - - - - -
30/02:00pm 35.7 NW 12 16 1005.5 - 0.0 - - - - - - -
30/01:30pm 36.0 NW 12 16 1005.7 - 0.0 - - - - - - -
30/01:00pm 37.0 NW 11 16 1006.0 - 0.0 - - - - - - -
30/12:30pm 37.3 NW 10 17 1006.4 - 0.0 - - - - - - -
30/12:00pm 36.0 NW 12 15 1006.8 - 0.0 - - - - - - -
30/11:30am 37.2 NNW 12 18 1007.1 - 0.0 - - - - - - -
30/11:11am 37.1 WNW 7 13 1007.5 - 0.0 - - - - - - -
30/11:00am 42.5 SW 11 19 1007.6 - 0.0 - - - - - - -
30/10:30am 41.9 S 12 17 1007.9 - 0.0 - - - - - - -
30/10:00am 39.4 S 8 12 1008.6 - 0.0 - - - - - - -
30/09:30am 37.1 SSW 8 12 1009.1 - 0.0 - - - - - - -
30/09:00am 34.6 WSW 9 13 1009.3 - 0.0 - - - - - - -
30/08:30am 32.7 WSW 9 13 1009.5 - 0.0 - - - - - - -
30/08:00am 30.5 W 10 13 1009.6 - 0.0 - - - - - - -
30/07:30am 28.3 W 8 11 1009.7 - 0.0 - - - - - - -
30/07:00am 25.9 WSW 6 8 1009.6 - 0.0 - - - - - - -
30/06:30am 24.5 SW 6 8 1009.5 - 0.0 - - - - - - -
30/06:00am 23.3 SW 6 8 1009.3 - 0.0 - - - - - - -
30/05:30am 21.0 WSW 3 5 1009.2 - 0.0 - - - - - - -
30/05:00am 21.3 CALM 0 0 1009.0 - 0.0 - - - - - - -
30/04:30am 21.2 CALM 0 0 1008.8 - 0.0 - - - - - - -
30/04:00am 21.2 CALM 0 0 1008.7 - 0.0 - - - - - - -
30/03:30am 22.0 CALM 0 0 1008.6 - 0.0 - - - - - - -
30/03:00am 22.7 WSW 3 4 1008.2 - 0.0 - - - - - - -
30/02:30am 22.9 CALM 0 3 1008.4 - 0.0 - - - - - - -
30/02:00am 23.0 W 4 5 1008.5 - 0.0 - - - - - - -
30/01:30am 23.0 SW 4 5 1008.7 - 0.0 - - - - - - -
30/01:00am 22.8 WSW 4 5 1008.9 - 0.0 - - - - - - -
30/12:30am 23.2 CALM 0 0 1009.4 - 0.0 - - - - - - -
30/12:00am 23.9 W 1 4 1009.4 - 0.0 - - - - - - -
 
Date/Time
WST
Temp

°C
Wind Pressure Rain
since 9am
mm
Weather Cloud Vis
km
Sea
Height
m
Swell
Dir
 
Speed
knots
Gust
knots
hPa Trend Height
m
Period
s
Dir
29/11:30pm 24.1 WSW 5 6 1009.4 - 0.0 - - - - - - -
29/11:00pm 24.6 W 5 6 1009.7 - 0.0 - - - - - - -
29/10:30pm 24.7 WNW 4 6 1010.2 - 0.0 - - - - - - -
29/10:00pm 24.9 W 4 5 1010.4 - 0.0 - - - - - - -
29/09:30pm 25.5 W 4 5 1010.4 - 0.0 - - - - - - -
29/09:00pm 25.9 W 5 7 1010.2 - 0.0 - - - - - - -
29/08:30pm 26.3 W 5 7 1010.4 - 0.0 - - - - - - -
29/08:00pm 26.5 W 7 11 1010.2 - 0.0 - - - - - - -
29/07:30pm 26.7 W 8 11 1010.0 - 0.0 - - - - - - -
29/07:00pm 26.8 WNW 9 12 1009.8 - 0.0 - - - - - - -
29/06:30pm 27.1 WNW 9 14 1009.6 - 0.0 - - - - - - -
29/06:00pm 27.5 WNW 9 13 1009.4 - 0.0 - - - - - - -
29/05:30pm 28.3 WNW 11 15 1009.3 - 0.0 - - - - - - -
29/05:00pm 29.4 WNW 10 14 1009.1 - 0.0 - - - - - - -
29/04:30pm 30.2 WNW 13 20 1008.9 - 0.0 - - - - - - -
29/04:00pm 30.2 NW 13 19 1008.8 - 0.0 - - - - - - -
29/03:30pm 30.9 NW 14 20 1008.9 - 0.0 - - - - - - -
29/03:00pm 32.0 WNW 13 18 1008.9 - 0.0 - - - - - - -
29/02:30pm 31.9 NW 14 18 1009.2 - 0.0 - - - - - - -
29/02:00pm 32.2 NW 14 18 1009.3 - 0.0 - - - - - - -
29/01:30pm 32.1 NW 13 19 1009.6 - 0.0 - - - - - - -
29/01:00pm 31.9 NW 14 19 1009.8 - 0.0 - - - - - - -
29/12:30pm 32.2 NW 14 18 1010.0 - 0.0 - - - - - - -
29/12:00pm 32.6 NNW 12 17 1010.2 - 0.0 - - - - - - -
29/11:30am 32.7 NNW 11 16 1010.4 - 0.0 - - - - - - -
29/11:00am 33.9 NNW 9 13 1010.4 - 0.0 - - - - - - -
29/10:30am 33.5 NW 8 12 1010.7 - 0.0 - - - - - - -
29/10:00am 33.2 NW 9 13 1011.0 - 0.0 - - - - - - -
29/09:30am 33.3 WNW 9 14 1011.0 - 0.0 - - - - - - -
29/09:00am 33.1 W 7 9 1011.0 - 0.0 - - - - - - -
29/08:30am 31.8 W 9 13 1011.1 - 0.0 - - - - - - -
29/08:00am 29.8 W 9 12 1011.3 - 0.0 - - - - - - -
29/07:30am 28.7 WSW 8 11 1011.2 - 0.0 - - - - - - -
29/07:00am 26.6 WSW 8 11 1011.3 - 0.0 - - - - - - -
29/06:30am 24.7 WSW 6 9 1011.2 - 0.0 - - - - - - -
29/06:00am 23.5 WSW 6 8 1010.7 - 0.0 - - - - - - -
29/05:30am 22.6 WSW 5 7 1010.7 - 0.0 - - - - - - -
29/05:00am 22.5 S 6 8 1010.8 - 0.0 - - - - - - -
29/04:30am 22.2 SW 5 6 1010.6 - 0.0 - - - - - - -
29/04:00am 22.2 SSW 6 7 1010.4 - 0.0 - - - - - - -
29/03:30am 22.4 SW 3 4 1010.6 - 0.0 - - - - - - -
29/03:00am 23.0 WNW 1 4 1010.4 - 0.0 - - - - - - -
29/02:30am 23.6 WNW 4 5 1010.6 - 0.0 - - - - - - -
29/02:00am 24.2 NNW 3 4 1011.2 - 0.0 - - - - - - -
29/01:30am 25.0 ESE 3 4 1011.7 - 0.0 - - - - - - -
29/01:00am 25.6 SE 4 7 1012.0 - 0.0 - - - - - - -
29/12:30am 25.3 SSW 3 4 1011.5 - 0.0 - - - - - - -
29/12:00am 25.3 SW 4 7 1011.5 - 0.0 - - - - - - -
 
Date/Time
WST
Temp

°C
Wind Pressure Rain
since 9am
mm
Weather Cloud Vis
km
Sea
Height
m
Swell
Dir
 
Speed
knots
Gust
knots
hPa Trend Height
m
Period
s
Dir
28/11:30pm 25.2 SSW 5 7 1011.6 - 0.0 - - - - - - -
28/11:00pm 25.2 S 9 12 1011.4 - 0.0 - - - - - - -
28/10:30pm 25.0 WNW 5 6 1011.2 - 0.0 - - - - - - -
28/10:00pm 25.6 W 4 5 1011.3 - 0.0 - - - - - - -
28/09:30pm 25.7 WNW 5 7 1011.4 - 0.0 - - - - - - -
28/09:00pm 25.8 WNW 5 6 1011.2 - 0.0 - - - - - - -

Other Formats:

Comma delimited format used in spreadsheet applications
http://www.bom.gov.au/fwo/IDW60701/IDW60701.94200.axf

JavaScript Object Notation format (JSON) in row-major order
http://www.bom.gov.au/fwo/IDW60701/IDW60701.94200.json